Time;durP1;ratioP1;P1;durP2;ratioP2;P2;SDS_P1;SDS_P2;PMS_P1;PMS_P2;Temp;Humidity;BMP_temperature;BMP_pressure;BME280_temperature;BME280_humidity;BME280_pressure;Samples;Min_cycle;Max_cycle;Signal;HPM_P1;HPM_P2
2023/03/21 00:01:15;;;;;;;29.80;20.53;;;;;;;11.72;65.91;99468.97;5058751;28;20227;-68
2023/03/21 00:03:43;;;;;;;28.67;19.63;;;;;;;11.72;65.84;99455.66;5035997;28;20201;-68
2023/03/21 00:06:11;;;;;;;30.90;19.47;;;;;;;11.75;65.84;99457.91;5052727;28;20191;-68
2023/03/21 00:08:40;;;;;;;30.23;19.93;;;;;;;11.77;65.87;99449.72;5053060;28;20187;-67
2023/03/21 00:11:10;;;;;;;30.03;19.73;;;;;;;11.88;65.76;99454.44;5052401;28;20253;-69
2023/03/21 00:13:41;;;;;;;31.80;19.53;;;;;;;11.97;65.39;99454.00;5052393;28;20205;-68
2023/03/21 00:16:14;;;;;;;34.13;20.03;;;;;;;12.01;65.27;99441.13;5034926;28;20179;-67
2023/03/21 00:18:42;;;;;;;30.63;20.07;;;;;;;12.05;65.13;99440.50;5033343;28;20179;-66
2023/03/21 00:21:11;;;;;;;39.57;21.03;;;;;;;12.06;65.01;99439.50;5032374;28;20204;-68
2023/03/21 00:23:38;;;;;;;32.70;19.93;;;;;;;12.00;64.81;99437.63;5032970;28;20281;-67
2023/03/21 00:26:05;;;;;;;26.93;19.53;;;;;;;11.98;64.93;99434.38;5032092;28;20198;-67
2023/03/21 00:28:32;;;;;;;29.87;19.87;;;;;;;11.99;65.03;99424.53;5032044;28;20290;-68
2023/03/21 00:31:00;;;;;;;28.67;19.47;;;;;;;12.07;65.37;99422.47;5032566;28;20245;-67
2023/03/21 00:33:27;;;;;;;30.03;19.20;;;;;;;11.98;65.53;99405.09;5032896;28;20305;-67
2023/03/21 00:35:54;;;;;;;25.57;19.73;;;;;;;12.09;65.25;99415.09;5046341;28;20199;-67
2023/03/21 00:38:22;;;;;;;37.97;20.83;;;;;;;12.08;64.97;99413.47;5052523;28;20196;-67
2023/03/21 00:40:49;;;;;;;34.17;20.47;;;;;;;12.14;65.06;99417.97;5051959;28;20647;-67
2023/03/21 00:43:18;;;;;;;29.90;19.57;;;;;;;12.04;65.16;99393.59;5051922;28;20637;-67
2023/03/21 00:45:45;;;;;;;29.23;20.13;;;;;;;12.11;65.27;99410.41;5051262;28;20187;-67
2023/03/21 00:48:14;;;;;;;33.77;20.13;;;;;;;11.98;65.33;99407.75;5052152;28;20193;-67
2023/03/21 00:50:44;;;;;;;44.50;22.23;;;;;;;11.87;65.32;99395.06;5052402;28;20241;-67
2023/03/21 00:53:11;;;;;;;39.67;20.63;;;;;;;11.98;65.34;99407.75;5052055;28;20218;-68
2023/03/21 00:55:37;;;;;;;35.60;19.97;;;;;;;11.99;65.47;99403.22;5052591;28;20199;-67
2023/03/21 00:58:04;;;;;;;31.43;19.77;;;;;;;12.03;65.46;99389.31;5035685;28;20291;-67
2023/03/21 01:00:32;;;;;;;34.03;20.00;;;;;;;12.08;65.40;99399.34;5031849;28;20674;-67
2023/03/21 01:03:04;;;;;;;38.93;19.87;;;;;;;12.10;65.82;99392.78;5032902;28;20196;-68
2023/03/21 01:08:19;;;;;;;28.80;20.23;;;;;;;12.03;65.15;99378.66;5032457;28;20284;-68
2023/03/21 01:10:48;;;;;;;28.90;19.33;;;;;;;12.05;65.42;99381.91;5031996;28;20196;-68
2023/03/21 01:13:17;;;;;;;31.83;19.77;;;;;;;12.10;65.31;99374.16;5031961;28;20306;-68
2023/03/21 01:15:46;;;;;;;35.67;19.27;;;;;;;12.12;65.11;99372.09;5032308;28;20200;-68
2023/03/21 01:18:14;;;;;;;31.47;19.23;;;;;;;12.06;65.30;99378.25;5031661;28;20195;-68
2023/03/21 01:20:43;;;;;;;34.60;19.60;;;;;;;11.98;65.52;99367.84;5032610;28;20278;-68
2023/03/21 01:23:11;;;;;;;32.90;20.30;;;;;;;12.02;65.44;99376.22;5035568;28;20651;-68
2023/03/21 01:25:38;;;;;;;31.80;20.40;;;;;;;12.01;65.10;99370.06;5035896;28;20192;-68
2023/03/21 01:28:06;;;;;;;34.83;20.30;;;;;;;12.01;65.60;99372.72;5036091;28;20204;-68
2023/03/21 01:30:33;;;;;;;33.57;21.17;;;;;;;12.02;65.81;99363.72;5035479;28;20648;-68
2023/03/21 01:32:59;;;;;;;38.27;20.97;;;;;;;12.05;66.01;99355.31;5035679;28;20639;-68
2023/03/21 01:35:26;;;;;;;33.67;22.17;;;;;;;12.08;66.18;99360.22;5035715;28;20256;-68
2023/03/21 01:37:54;;;;;;;37.77;21.43;;;;;;;12.04;65.80;99353.66;5035480;28;20655;-68
2023/03/21 01:40:23;;;;;;;39.57;22.37;;;;;;;11.97;65.93;99352.84;5035330;28;20327;-68
2023/03/21 01:42:50;;;;;;;39.90;21.97;;;;;;;11.92;66.12;99350.00;5036373;28;20188;-68
2023/03/21 01:45:59;;;;;;;40.33;21.90;;;;;;;11.94;66.42;99342.66;5036056;28;20278;-68
2023/03/21 01:48:28;;;;;;;33.50;22.23;;;;;;;11.97;66.46;99336.88;5002768;28;20187;-68
2023/03/21 01:50:56;;;;;;;34.73;22.00;;;;;;;11.96;66.59;99329.94;5035183;28;20242;-68
2023/03/21 01:53:28;;;;;;;36.60;22.77;;;;;;;11.99;67.36;99334.84;5035374;28;20268;-68
2023/03/21 01:55:57;;;;;;;35.23;24.13;;;;;;;12.03;67.12;99329.91;5035366;28;20194;-67
2023/03/21 01:58:24;;;;;;;38.50;23.60;;;;;;;12.06;67.11;99324.19;5035612;28;20191;-67
2023/03/21 02:00:52;;;;;;;36.90;23.20;;;;;;;12.03;66.76;99314.78;5034887;28;20227;-67
2023/03/21 02:03:20;;;;;;;28.90;21.77;;;;;;;12.01;66.81;99311.50;5034956;28;20195;-68
2023/03/21 02:05:54;;;;;;;40.13;24.13;;;;;;;12.07;66.64;99320.47;5034890;28;20248;-68
2023/03/21 02:08:22;;;;;;;41.20;23.47;;;;;;;12.06;66.58;99314.38;5034949;28;20239;-68
2023/03/21 02:10:51;;;;;;;27.57;18.33;;;;;;;12.11;68.26;99311.88;5035127;28;20195;-68
2023/03/21 02:13:18;;;;;;;25.37;17.50;;;;;;;12.18;68.99;99302.03;5035271;28;20308;-67
2023/03/21 02:15:51;;;;;;;24.03;17.47;;;;;;;12.26;69.18;99307.13;5035519;28;20195;-67
2023/03/21 02:18:26;;;;;;;29.67;18.43;;;;;;;12.34;69.93;99311.38;5035732;28;20242;-67
2023/03/21 02:21:44;;;;;;;20.03;16.10;;;;;;;12.38;70.59;99301.94;5034665;28;20191;-67
2023/03/21 02:24:31;;;;;;;22.57;14.97;;;;;;;12.21;72.91;99306.13;5031097;28;20242;-68
2023/03/21 02:27:12;;;;;;;22.37;15.67;;;;;;;12.29;73.12;99314.66;5034831;28;20199;-68
2023/03/21 02:30:26;;;;;;;22.13;15.87;;;;;;;12.35;73.38;99319.16;5034457;28;20258;-68
2023/03/21 02:33:10;;;;;;;21.67;15.67;;;;;;;12.28;73.57;99318.38;5003367;28;20254;-68
2023/03/21 02:35:58;;;;;;;19.23;14.47;;;;;;;12.35;73.87;99324.50;5035214;28;20246;-68
2023/03/21 02:38:29;;;;;;;25.30;15.60;;;;;;;12.39;73.54;99323.03;5034519;28;20196;-67
2023/03/21 02:41:04;;;;;;;22.73;16.07;;;;;;;12.49;73.58;99328.72;5034501;28;20177;-68
2023/03/21 02:43:39;;;;;;;26.07;16.07;;;;;;;12.50;73.20;99327.69;5034987;28;20188;-68
2023/03/21 02:46:10;;;;;;;25.43;17.00;;;;;;;12.45;72.59;99335.50;5034762;28;20543;-68
2023/03/21 02:48:41;;;;;;;22.00;16.13;;;;;;;12.45;72.90;99342.69;5035297;28;20557;-68
2023/03/21 02:51:11;;;;;;;26.70;17.20;;;;;;;12.44;72.80;99336.53;5035251;28;20189;-68
2023/03/21 02:53:43;;;;;;;23.57;16.10;;;;;;;12.46;72.84;99337.13;5034678;28;20216;-68
2023/03/21 02:56:10;;;;;;;26.40;15.97;;;;;;;12.51;72.94;99333.84;5034238;28;20183;-68
2023/03/21 02:58:38;;;;;;;26.70;16.60;;;;;;;12.52;73.13;99330.97;5033906;28;20246;-68
2023/03/21 03:01:07;;;;;;;23.13;16.37;;;;;;;12.54;72.79;99338.75;5034261;28;20598;-68
2023/03/21 03:03:37;;;;;;;20.67;13.57;;;;;;;12.53;73.03;99331.81;5034152;28;20301;-69
2023/03/21 03:06:11;;;;;;;30.87;16.53;;;;;;;12.62;72.97;99341.97;5034626;28;20191;-68
2023/03/21 03:08:51;;;;;;;22.17;15.20;;;;;;;12.55;72.45;99335.88;5033842;28;20186;-68
2023/03/21 03:11:27;;;;;;;22.70;16.67;;;;;;;12.56;71.80;99348.16;5033993;28;20185;-68
2023/03/21 03:14:05;;;;;;;22.73;17.13;;;;;;;12.48;71.82;99359.06;5033642;28;20211;-68
2023/03/21 03:16:39;;;;;;;26.63;19.20;;;;;;;12.36;70.55;99363.41;5034339;28;20616;-68
2023/03/21 03:19:11;;;;;;;32.43;19.83;;;;;;;12.22;69.98;99361.84;5034115;28;20602;-68
2023/03/21 03:21:42;;;;;;;25.47;19.23;;;;;;;12.11;69.91;99361.63;5034688;28;20275;-68
2023/03/21 03:24:15;;;;;;;27.93;19.47;;;;;;;12.04;69.37;99369.66;5033779;28;20227;-69
2023/03/21 03:26:48;;;;;;;32.30;20.10;;;;;;;11.89;69.12;99371.75;5034523;28;20180;-68
2023/03/21 03:29:17;;;;;;;34.83;19.83;;;;;;;11.72;68.45;99362.53;5034493;28;20191;-68
2023/03/21 03:31:51;;;;;;;30.40;20.90;;;;;;;11.59;68.99;99364.38;5033704;28;20260;-69
2023/03/21 03:34:22;;;;;;;33.23;22.07;;;;;;;11.51;69.82;99365.38;5033991;28;20268;-68
2023/03/21 03:36:56;;;;;;;29.10;19.90;;;;;;;11.48;69.49;99367.63;5033692;28;20275;-68
2023/03/21 03:39:33;;;;;;;25.77;17.90;;;;;;;11.43;69.89;99359.47;5035417;28;20619;-68
2023/03/21 03:42:05;;;;;;;29.33;19.03;;;;;;;11.46;69.54;99359.84;5054142;28;20235;-68
2023/03/21 03:44:32;;;;;;;30.97;20.03;;;;;;;11.40;69.92;99350.06;5052229;28;20193;-68
2023/03/21 03:47:04;;;;;;;29.63;20.90;;;;;;;11.35;70.17;99344.50;5053185;28;20228;-68
2023/03/21 03:49:36;;;;;;;28.83;20.90;;;;;;;11.35;70.28;99341.84;5053742;28;20182;-67
2023/03/21 03:52:09;;;;;;;27.57;20.33;;;;;;;11.31;70.44;99345.94;5052837;28;20177;-67
2023/03/21 03:54:40;;;;;;;26.60;19.53;;;;;;;11.28;70.63;99335.72;5053898;28;20205;-68
2023/03/21 03:57:08;;;;;;;30.23;20.70;;;;;;;11.24;71.01;99342.47;5053135;28;20498;-68
2023/03/21 03:59:36;;;;;;;31.17;21.13;;;;;;;11.21;70.80;99334.91;5053358;28;20189;-68
2023/03/21 04:02:03;;;;;;;33.10;20.63;;;;;;;11.07;71.74;99335.91;5053649;28;20259;-68
2023/03/21 04:04:30;;;;;;;32.27;20.67;;;;;;;10.93;72.58;99336.91;5052547;28;20236;-68
2023/03/21 04:06:57;;;;;;;31.23;21.03;;;;;;;10.85;72.94;99337.09;5052517;28;20198;-68
2023/03/21 04:09:27;;;;;;;26.17;19.20;;;;;;;10.79;72.81;99344.03;5053358;28;20243;-68
2023/03/21 04:11:56;;;;;;;34.13;19.97;;;;;;;10.83;73.02;99344.47;5052721;28;20194;-68
2023/03/21 04:14:23;;;;;;;36.10;19.30;;;;;;;10.80;73.08;99355.47;5052611;28;20220;-68
2023/03/21 04:16:51;;;;;;;29.50;19.93;;;;;;;10.77;72.85;99348.75;5052391;28;20658;-68
2023/03/21 04:19:18;;;;;;;28.63;18.57;;;;;;;10.82;72.82;99350.78;5052359;28;20661;-67
2023/03/21 04:21:46;;;;;;;27.53;19.10;;;;;;;10.87;73.05;99353.66;5052538;28;20611;-67
2023/03/21 04:24:13;;;;;;;27.70;19.00;;;;;;;10.83;72.77;99358.53;5052679;28;20187;-67
2023/03/21 04:26:40;;;;;;;27.63;19.73;;;;;;;10.77;73.60;99355.88;5052022;28;20585;-67
2023/03/21 04:29:08;;;;;;;26.60;18.03;;;;;;;10.74;73.90;99356.28;5052492;28;20252;-67
2023/03/21 04:31:35;;;;;;;33.27;19.43;;;;;;;10.70;73.75;99358.53;5052402;28;20248;-66
2023/03/21 04:34:04;;;;;;;33.23;19.33;;;;;;;10.64;73.64;99356.69;5052011;28;20588;-67
2023/03/21 04:36:37;;;;;;;38.23;19.40;;;;;;;10.57;74.72;99357.66;5052362;28;20196;-67
2023/03/21 04:39:10;;;;;;;32.33;20.07;;;;;;;10.57;74.72;99360.31;5052623;28;20285;-67
2023/03/21 04:41:37;;;;;;;35.13;19.50;;;;;;;10.65;74.77;99360.97;5052039;28;20217;-67
2023/03/21 04:44:04;;;;;;;30.47;18.20;;;;;;;10.71;73.68;99362.00;5051963;28;20242;-67
2023/03/21 04:46:32;;;;;;;38.83;20.60;;;;;;;10.78;73.99;99361.00;5051925;28;20190;-66
2023/03/21 04:48:59;;;;;;;37.97;20.17;;;;;;;10.80;73.15;99366.94;5052221;28;20229;-66
2023/03/21 04:51:26;;;;;;;43.87;22.10;;;;;;;10.84;73.73;99370.00;5052690;28;20286;-68
2023/03/21 04:53:56;;;;;;;40.27;19.87;;;;;;;10.88;73.90;99371.25;5051782;28;20631;-68
2023/03/21 04:56:29;;;;;;;36.67;20.97;;;;;;;10.96;73.77;99368.41;5052514;28;20280;-68
2023/03/21 04:58:56;;;;;;;39.90;19.57;;;;;;;11.04;73.43;99376.19;5051862;28;20188;-68
2023/03/21 05:01:24;;;;;;;40.33;19.50;;;;;;;11.12;72.69;99372.50;5051908;28;20704;-68
2023/03/21 05:03:52;;;;;;;42.07;19.17;;;;;;;11.17;72.61;99370.06;5049544;28;20738;-68
2023/03/21 05:06:19;;;;;;;27.87;18.17;;;;;;;11.24;73.04;99382.34;5051868;28;20279;-68
2023/03/21 05:08:46;;;;;;;40.33;19.57;;;;;;;11.40;72.73;99376.66;5051852;28;20186;-68
2023/03/21 05:11:12;;;;;;;28.83;19.80;;;;;;;11.63;72.43;99382.38;5051342;28;20228;-68
2023/03/21 05:13:39;;;;;;;42.83;20.93;;;;;;;11.90;71.69;99393.84;5037402;28;20671;-68
2023/03/21 05:16:07;;;;;;;37.13;19.97;;;;;;;12.22;71.01;99385.81;5031487;28;20223;-71
2023/03/21 05:18:37;;;;;;;49.67;21.33;;;;;;;12.62;69.06;99384.59;5031734;28;20564;-68
2023/03/21 05:21:09;;;;;;;39.83;21.93;;;;;;;13.06;67.65;99387.28;5032188;28;20243;-68
2023/03/21 05:23:37;;;;;;;39.47;22.27;;;;;;;13.47;66.71;99382.28;5052082;28;20269;-68
2023/03/21 05:26:06;;;;;;;34.77;22.30;;;;;;;13.92;65.35;99383.75;5052040;28;20189;-70
2023/03/21 05:28:35;;;;;;;32.50;20.60;;;;;;;14.40;63.77;99387.41;5051502;28;20253;-68
2023/03/21 05:31:02;;;;;;;41.20;20.67;;;;;;;14.52;61.71;99358.88;5041864;28;20198;-68
2023/03/21 05:33:29;;;;;;;31.57;19.60;;;;;;;14.75;59.71;99377.69;5031221;28;20237;-68
2023/03/21 05:35:56;;;;;;;40.83;20.07;;;;;;;14.88;60.09;99374.88;5031437;28;20221;-68
2023/03/21 05:38:24;;;;;;;40.37;20.17;;;;;;;14.92;59.33;99384.06;5030917;28;20185;-68
2023/03/21 05:40:51;;;;;;;45.57;21.20;;;;;;;14.86;59.76;99381.47;5032054;28;20276;-68
2023/03/21 05:43:18;;;;;;;45.53;24.30;;;;;;;14.90;59.68;99383.47;5031205;28;20606;-68
2023/03/21 05:45:47;;;;;;;40.83;20.10;;;;;;;14.91;59.73;99382.41;5031205;28;20255;-70
2023/03/21 05:48:13;;;;;;;47.13;22.17;;;;;;;14.86;60.14;99384.97;5033751;28;20200;-69
2023/03/21 05:50:40;;;;;;;45.23;22.53;;;;;;;14.76;58.96;99387.38;5070803;28;20608;-69
2023/03/21 05:53:07;;;;;;;55.97;23.63;;;;;;;14.28;58.67;99329.56;5071389;28;20188;-69
2023/03/21 05:55:35;;;;;;;55.97;23.93;;;;;;;14.58;59.44;99391.94;5071143;28;20589;-69
2023/03/21 05:58:01;;;;;;;44.13;23.23;;;;;;;14.63;59.62;99387.50;5041318;28;20239;-71
2023/03/21 06:00:29;;;;;;;34.60;16.20;;;;;;;14.89;73.22;99365.81;5030960;28;20221;-72
2023/03/21 06:02:56;;;;;;;36.37;19.37;;;;;;;15.18;64.86;99381.03;5031280;28;20216;-69
2023/03/21 06:05:22;;;;;;;38.00;17.80;;;;;;;15.35;63.01;99365.97;5032026;28;20251;-72
2023/03/21 06:07:49;;;;;;;31.87;19.07;;;;;;;15.82;65.42;99378.34;5038998;28;20189;-71
2023/03/21 06:10:16;;;;;;;26.60;15.40;;;;;;;16.12;61.62;99388.97;5054793;28;20200;-72
2023/03/21 06:12:44;;;;;;;29.87;15.80;;;;;;;16.37;64.39;99375.31;5054641;28;20188;-72
2023/03/21 06:15:12;;;;;;;26.07;14.97;;;;;;;16.66;62.96;99388.56;5054835;28;20277;-72
2023/03/21 06:17:38;;;;;;;34.07;18.10;;;;;;;17.14;63.94;99382.78;5054883;28;20246;-72
2023/03/21 06:20:07;;;;;;;21.70;15.93;;;;;;;17.50;62.46;99380.53;5054536;28;20251;-73
2023/03/21 06:22:35;;;;;;;24.97;14.13;;;;;;;17.86;63.65;99381.91;5055136;28;20243;-72
2023/03/21 06:25:02;;;;;;;25.97;16.80;;;;;;;18.10;57.59;99383.34;5054431;28;20660;-72
2023/03/21 06:27:28;;;;;;;23.47;14.50;;;;;;;18.24;57.73;99389.97;5054365;28;20189;-72
2023/03/21 06:29:57;;;;;;;22.13;16.03;;;;;;;17.93;55.18;99394.09;5054743;28;20266;-69
2023/03/21 06:32:24;;;;;;;24.57;16.77;;;;;;;17.39;56.01;99388.63;5054836;28;20279;-69
2023/03/21 06:34:51;;;;;;;29.53;18.10;;;;;;;17.30;53.93;99387.34;5053472;28;20279;-69
2023/03/21 06:37:19;;;;;;;29.73;16.73;;;;;;;17.13;56.01;99392.72;5052583;28;20196;-71
2023/03/21 06:39:46;;;;;;;23.53;14.50;;;;;;;17.12;57.51;99399.16;5054574;28;20235;-69
2023/03/21 06:42:13;;;;;;;21.80;14.63;;;;;;;17.07;57.16;99396.34;5054102;28;20223;-68
2023/03/21 06:44:40;;;;;;;21.50;15.60;;;;;;;17.10;55.54;99403.09;5054105;28;20724;-68
2023/03/21 06:47:08;;;;;;;25.80;14.00;;;;;;;17.15;56.58;99395.16;5053738;28;20185;-68
2023/03/21 06:49:35;;;;;;;17.97;14.57;;;;;;;17.10;55.62;99403.09;5053561;28;20218;-68
2023/03/21 06:52:01;;;;;;;15.77;12.80;;;;;;;17.13;55.58;99399.94;5053477;28;20719;-69
2023/03/21 06:54:28;;;;;;;28.33;16.50;;;;;;;17.20;56.41;99395.25;5053663;28;20192;-68
2023/03/21 06:56:55;;;;;;;25.37;16.97;;;;;;;17.37;55.95;99399.59;5054006;28;20611;-68
2023/03/21 06:59:22;;;;;;;22.93;17.60;;;;;;;17.41;54.13;99408.84;5055041;28;20255;-69
2023/03/21 07:01:49;;;;;;;22.77;17.13;;;;;;;17.36;54.70;99410.56;5073759;28;20662;-68
2023/03/21 07:04:17;;;;;;;28.97;16.57;;;;;;;17.36;55.26;99405.22;5073651;28;20192;-68
2023/03/21 07:06:43;;;;;;;26.03;16.30;;;;;;;17.46;56.13;99408.91;5073584;28;20676;-69
2023/03/21 07:09:10;;;;;;;22.10;16.20;;;;;;;17.70;55.24;99399.66;5074750;28;20250;-68
2023/03/21 07:11:37;;;;;;;37.47;17.27;;;;;;;17.84;54.01;99410.91;5073752;28;20258;-69
2023/03/21 07:14:05;;;;;;;26.07;17.30;;;;;;;18.04;53.65;99409.34;5074087;28;20598;-68
2023/03/21 07:16:32;;;;;;;16.73;12.70;;;;;;;18.08;54.22;99409.63;5073894;28;20310;-69
2023/03/21 07:18:58;;;;;;;32.20;17.13;;;;;;;18.24;53.13;99400.75;5072691;28;20242;-69
2023/03/21 07:21:26;;;;;;;29.07;17.77;;;;;;;18.36;53.30;99399.63;5073483;28;20204;-69
2023/03/21 07:23:53;;;;;;;25.33;18.27;;;;;;;18.46;53.13;99404.31;5074193;28;20194;-69
2023/03/21 07:26:20;;;;;;;26.57;17.63;;;;;;;18.57;52.13;99401.50;5065089;28;20254;-69
2023/03/21 07:28:47;;;;;;;26.87;16.13;;;;;;;18.77;52.83;99400.94;5055472;28;20196;-70
2023/03/21 07:31:16;;;;;;;26.90;17.87;;;;;;;19.01;51.19;99403.13;5056706;28;20189;-70
2023/03/21 07:33:43;;;;;;;27.17;17.17;;;;;;;19.12;52.11;99398.66;5053135;28;20193;-69
2023/03/21 07:36:12;;;;;;;32.30;18.73;;;;;;;18.90;50.48;99397.88;5059065;28;20749;-69
2023/03/21 07:38:40;;;;;;;24.70;16.17;;;;;;;18.93;50.57;99397.38;5072279;28;20272;-69
2023/03/21 07:41:07;;;;;;;23.03;16.27;;;;;;;18.89;50.85;99404.31;5073073;28;20190;-69
2023/03/21 07:43:34;;;;;;;25.97;17.13;;;;;;;18.90;51.28;99392.47;5072909;28;20652;-70
2023/03/21 07:46:01;;;;;;;23.37;16.63;;;;;;;18.89;50.60;99394.38;5073159;28;20193;-70
2023/03/21 07:48:29;;;;;;;28.13;16.67;;;;;;;18.82;51.76;99392.91;5073627;28;20247;-70
2023/03/21 07:54:21;;;;;;;22.00;13.17;;;;;;;19.09;51.75;99385.69;5072842;28;20199;-68
2023/03/21 08:00:27;;;;;;;27.73;15.73;;;;;;;19.13;50.54;99378.75;5030568;28;20278;-69
2023/03/21 08:02:56;;;;;;;26.40;15.13;;;;;;;19.36;49.84;99387.34;5030813;28;20248;-70
2023/03/21 08:05:23;;;;;;;21.43;14.87;;;;;;;19.54;48.03;99384.31;5030510;28;20194;-69
2023/03/21 08:07:50;;;;;;;25.13;13.87;;;;;;;19.71;47.99;99386.84;5030554;28;20225;-67
2023/03/21 08:10:19;;;;;;;18.97;13.33;;;;;;;19.92;47.63;99377.84;5030517;28;20213;-73
2023/03/21 08:12:46;;;;;;;16.03;14.17;;;;;;;20.05;47.10;99375.53;5030694;28;20201;-74
2023/03/21 08:15:14;;;;;;;20.87;14.97;;;;;;;20.10;47.30;99369.38;5050444;28;20275;-70
2023/03/21 08:17:44;;;;;;;18.93;14.83;;;;;;;20.22;46.49;99372.72;5073171;28;20195;-73
2023/03/21 08:20:14;;;;;;;21.80;14.07;;;;;;;20.16;45.76;99379.13;5072713;28;20184;-70
2023/03/21 08:22:42;;;;;;;15.27;11.73;;;;;;;20.20;45.92;99377.53;5072983;28;20188;-66
2023/03/21 08:25:12;;;;;;;21.77;13.37;;;;;;;20.11;45.46;99379.94;5072502;28;20202;-66
2023/03/21 08:27:40;;;;;;;30.23;14.57;;;;;;;20.05;45.52;99377.44;5072168;28;20635;-66
2023/03/21 08:30:08;;;;;;;46.83;16.03;;;;;;;20.01;45.95;99370.94;5071753;28;20249;-65
2023/03/21 08:32:37;;;;;;;19.30;15.33;;;;;;;20.00;46.40;99374.66;5072545;28;20192;-65
2023/03/21 08:35:07;;;;;;;28.37;20.97;;;;;;;20.01;44.94;99382.50;5072315;28;20188;-65
2023/03/21 08:37:34;;;;;;;24.77;15.87;;;;;;;20.04;45.39;99367.69;5072064;28;20644;-65
2023/03/21 08:40:00;;;;;;;16.63;13.37;;;;;;;20.00;45.70;99374.66;5072106;28;20187;-65
2023/03/21 08:42:27;;;;;;;17.73;13.53;;;;;;;19.95;45.49;99371.94;5071984;28;20203;-66
2023/03/21 08:44:55;;;;;;;33.90;18.67;;;;;;;19.95;45.41;99380.03;5071939;28;20214;-67
2023/03/21 08:47:22;;;;;;;17.37;13.70;;;;;;;19.92;45.36;99372.47;5072767;28;20555;-65
2023/03/21 08:49:48;;;;;;;16.20;12.50;;;;;;;19.75;44.20;99367.22;5072711;28;20188;-66
2023/03/21 08:52:15;;;;;;;52.00;15.30;;;;;;;19.41;45.52;99373.13;5071856;28;20194;-66
2023/03/21 08:54:43;;;;;;;17.43;12.97;;;;;;;19.16;47.13;99362.88;5071846;28;20191;-67
2023/03/21 08:57:10;;;;;;;20.47;13.17;;;;;;;19.19;47.35;99361.59;5072095;28;20592;-66
2023/03/21 08:59:37;;;;;;;26.60;12.93;;;;;;;19.13;47.48;99367.97;5072289;28;20191;-66
2023/03/21 09:02:06;;;;;;;69.80;16.60;;;;;;;19.04;47.71;99358.72;5072551;28;20226;-65
2023/03/21 09:04:32;;;;;;;51.30;15.27;;;;;;;18.93;47.93;99354.28;5071701;28;20672;-65
2023/03/21 09:07:00;;;;;;;21.07;13.67;;;;;;;18.90;48.11;99357.50;5071774;28;20726;-66
2023/03/21 09:09:27;;;;;;;19.60;13.33;;;;;;;18.82;48.44;99355.25;5072557;28;20210;-65
2023/03/21 09:11:53;;;;;;;19.10;13.43;;;;;;;18.87;48.21;99347.25;5071692;28;20192;-67
2023/03/21 09:14:20;;;;;;;24.70;14.10;;;;;;;18.82;48.51;99339.09;5072776;28;20187;-66
2023/03/21 09:16:47;;;;;;;23.10;13.40;;;;;;;18.90;48.86;99347.53;5071896;28;20272;-67
2023/03/21 09:19:16;;;;;;;22.80;13.60;;;;;;;18.92;48.29;99350.81;5071654;28;20242;-68
2023/03/21 09:21:43;;;;;;;32.33;12.87;;;;;;;18.96;48.59;99345.72;5072073;28;20200;-67
2023/03/21 09:24:11;;;;;;;22.40;13.30;;;;;;;19.20;47.73;99347.06;5071881;28;20184;-67
2023/03/21 09:26:38;;;;;;;19.37;13.17;;;;;;;19.44;47.19;99351.88;5072669;28;20576;-67
2023/03/21 09:29:06;;;;;;;36.63;13.27;;;;;;;19.41;47.78;99346.19;5072289;28;20220;-65
2023/03/21 09:31:33;;;;;;;19.90;13.47;;;;;;;19.40;46.91;99336.50;5071666;28;20259;-65
2023/03/21 09:33:59;;;;;;;26.83;13.20;;;;;;;19.33;47.37;99341.28;5071239;28;20653;-66
2023/03/21 09:36:29;;;;;;;53.37;15.37;;;;;;;19.28;47.44;99333.16;5071405;28;20221;-65
2023/03/21 09:38:56;;;;;;;24.40;14.43;;;;;;;19.16;47.64;99329.78;5071669;28;20189;-66
2023/03/21 09:41:37;;;;;;;31.80;13.80;;;;;;;19.32;47.55;99334.25;5071574;28;20194;-67
2023/03/21 09:44:18;;;;;;;14.40;12.20;;;;;;;19.33;47.71;99327.81;5076245;28;20236;-67
2023/03/21 09:46:50;;;;;;;22.10;13.30;;;;;;;19.54;47.00;99334.97;5075698;28;20188;-67
2023/03/21 09:49:21;;;;;;;24.77;13.70;;;;;;;19.65;46.66;99329.41;5075136;28;20636;-65
2023/03/21 09:51:53;;;;;;;19.60;13.50;;;;;;;19.85;49.29;99318.75;5075439;28;20179;-64
2023/03/21 09:54:26;;;;;;;18.60;13.40;;;;;;;20.12;45.74;99327.59;5075064;28;20640;-63
2023/03/21 09:56:56;;;;;;;20.27;13.30;;;;;;;20.36;45.68;99326.09;5074997;28;20695;-65
2023/03/21 09:59:29;;;;;;;21.93;13.50;;;;;;;20.36;46.41;99315.31;5075009;28;20713;-64
2023/03/21 10:01:59;;;;;;;26.90;12.93;;;;;;;20.58;45.85;99315.09;5075627;28;20306;-66
2023/03/21 10:04:26;;;;;;;27.40;13.97;;;;;;;20.82;45.04;99316.25;5075106;28;20191;-65
2023/03/21 10:06:59;;;;;;;25.13;13.53;;;;;;;20.69;43.40;99305.97;5075605;28;20195;-67
2023/03/21 10:09:28;;;;;;;19.80;12.80;;;;;;;20.68;43.47;99312.47;5074752;28;20184;-64
2023/03/21 10:11:58;;;;;;;19.80;13.33;;;;;;;20.70;43.29;99307.59;5074927;28;20589;-67
2023/03/21 10:14:31;;;;;;;21.37;12.90;;;;;;;20.67;45.25;99292.75;5075377;28;20241;-66
2023/03/21 10:17:00;;;;;;;43.27;14.40;;;;;;;20.86;43.55;99309.25;5075030;28;20219;-66
2023/03/21 10:19:28;;;;;;;17.67;13.30;;;;;;;20.87;43.16;99304.69;5074536;28;20192;-68
2023/03/21 10:21:56;;;;;;;20.43;12.33;;;;;;;20.73;43.64;99293.56;5074712;28;20184;-67
2023/03/21 10:24:26;;;;;;;41.03;13.50;;;;;;;20.89;43.83;99300.63;5075028;28;20191;-66
2023/03/21 10:26:55;;;;;;;76.23;16.47;;;;;;;20.92;43.17;99308.25;5075195;28;20196;-68
2023/03/21 10:32:44;;;;;;;13.23;10.83;;;;;;;20.47;43.15;99295.38;5074312;28;20167;-66
2023/03/21 10:35:14;;;;;;;16.33;14.10;;;;;;;20.38;43.91;99280.78;5074562;28;20188;-66
2023/03/21 10:37:42;;;;;;;22.63;14.00;;;;;;;20.39;45.42;99281.59;5075034;28;20622;-66
2023/03/21 10:40:16;;;;;;;27.93;16.80;;;;;;;20.46;44.71;99290.25;5074398;28;20233;-67
2023/03/21 10:46:11;;;;;;;22.00;12.83;;;;;;;20.19;44.51;99270.72;5074164;28;20221;-67
2023/03/21 10:48:39;;;;;;;21.27;12.37;;;;;;;20.06;44.85;99263.88;5074031;28;20716;-67
2023/03/21 10:51:09;;;;;;;34.17;12.03;;;;;;;20.06;44.99;99255.00;5074286;28;20188;-66
2023/03/21 10:53:40;;;;;;;21.00;11.10;;;;;;;20.05;45.37;99250.69;5073884;28;20192;-68
2023/03/21 10:56:09;;;;;;;11.10;10.13;;;;;;;20.11;44.88;99252.34;5074658;28;20547;-68
2023/03/21 10:58:41;;;;;;;18.27;11.77;;;;;;;20.09;44.46;99254.47;5074473;28;20283;-69
2023/03/21 11:01:13;;;;;;;18.00;10.97;;;;;;;20.04;44.67;99251.72;5074025;28;20224;-68
2023/03/21 11:03:43;;;;;;;12.10;10.90;;;;;;;20.07;44.04;99251.22;5074055;28;20621;-66
2023/03/21 11:06:17;;;;;;;13.03;10.77;;;;;;;20.23;43.48;99239.44;5074276;28;20285;-67
2023/03/21 11:08:48;;;;;;;15.20;10.23;;;;;;;20.41;42.82;99230.88;5073680;28;20180;-67
2023/03/21 11:11:26;;;;;;;11.10;9.70;;;;;;;20.52;43.16;99227.13;5073964;28;20187;-67
2023/03/21 11:13:57;;;;;;;15.23;10.13;;;;;;;20.61;42.35;99220.13;5073828;28;20587;-66
2023/03/21 11:16:30;;;;;;;20.20;11.50;;;;;;;20.74;41.42;99213.41;5073497;28;20265;-67
2023/03/21 11:19:02;;;;;;;20.63;12.63;;;;;;;20.85;43.56;99202.34;5073498;28;20665;-64
2023/03/21 11:21:36;;;;;;;15.80;9.60;;;;;;;21.02;50.03;99189.41;5074199;28;20579;-65
2023/03/21 11:24:06;;;;;;;17.27;10.83;;;;;;;21.27;49.71;99192.09;5073233;28;20180;-65
2023/03/21 11:26:36;;;;;;;18.23;11.30;;;;;;;21.55;46.62;99194.19;5073251;28;20200;-65
2023/03/21 11:29:23;;;;;;;34.40;13.77;;;;;;;21.74;41.04;99200.69;5074054;28;20180;-66
2023/03/21 11:31:51;;;;;;;14.63;11.13;;;;;;;21.83;46.67;99198.19;5074016;28;20529;-65
2023/03/21 11:34:28;;;;;;;22.77;12.20;;;;;;;22.03;41.66;99208.94;5073034;28;20234;-66
2023/03/21 11:37:00;;;;;;;26.03;12.77;;;;;;;22.26;42.66;99194.78;5073031;28;20765;-67
2023/03/21 11:39:36;;;;;;;14.77;12.90;;;;;;;22.31;38.76;99192.88;5073123;28;20180;-65
2023/03/21 11:42:02;;;;;;;24.17;12.93;;;;;;;22.19;39.11;99189.69;5073039;28;20180;-63
2023/03/21 11:44:32;;;;;;;15.80;13.03;;;;;;;21.99;39.31;99184.34;5073052;28;20188;-62